Time;durP1;ratioP1;P1;durP2;ratioP2;P2;SDS_P1;SDS_P2;PMS_P1;PMS_P2;Temp;Humidity;BMP_temperature;BMP_pressure;BME280_temperature;BME280_humidity;BME280_pressure;Samples;Min_cycle;Max_cycle;Signal;HPM_P1;HPM_P2
2023/01/05 00:01:13;;;;;;;21.75;6.15;;;10.30;99.90;;;;;;5122810;27;20063;-80
2023/01/05 00:03:39;;;;;;;21.20;5.93;;;10.30;99.90;;;;;;5113190;27;20046;-80
2023/01/05 00:06:08;;;;;;;20.55;5.70;;;10.30;99.90;;;;;;5113273;27;20070;-80
2023/01/05 00:08:34;;;;;;;22.08;5.70;;;10.30;99.90;;;;;;5099707;27;20387;-80
2023/01/05 00:24:45;;;;;;;25.70;6.03;;;10.40;99.90;;;;;;5132471;27;20054;-81
2023/01/05 00:27:11;;;;;;;23.80;5.35;;;10.30;99.90;;;;;;5099259;27;20047;-81
2023/01/05 00:29:36;;;;;;;20.98;5.22;;;10.40;99.90;;;;;;5113528;27;20062;-81
2023/01/05 00:32:02;;;;;;;22.33;5.10;;;10.40;99.90;;;;;;5131789;27;20392;-79
2023/01/05 00:34:28;;;;;;;20.20;5.22;;;10.50;99.90;;;;;;5120505;27;20031;-78
2023/01/05 00:36:53;;;;;;;23.10;5.88;;;10.50;99.90;;;;;;5128309;27;20080;-79
2023/01/05 00:39:19;;;;;;;21.20;5.40;;;10.50;99.90;;;;;;5114365;27;20039;-78
2023/01/05 00:41:45;;;;;;;19.52;5.65;;;10.60;99.90;;;;;;5104114;27;20027;-78
2023/01/05 00:44:10;;;;;;;23.15;5.53;;;10.60;99.90;;;;;;5120122;27;20084;-79
2023/01/05 00:46:36;;;;;;;17.90;5.60;;;10.60;99.90;;;;;;5095474;27;20032;-79
2023/01/05 00:49:01;;;;;;;18.45;4.78;;;10.70;99.90;;;;;;5100621;28;20043;-80
2023/01/05 00:51:27;;;;;;;21.55;5.63;;;10.70;99.90;;;;;;5097275;27;20551;-80
2023/01/05 00:53:53;;;;;;;19.95;5.55;;;10.80;99.90;;;;;;5111245;27;20036;-79
2023/01/05 00:56:18;;;;;;;21.15;5.65;;;10.80;99.90;;;;;;5121267;27;20043;-78
2023/01/05 00:58:44;;;;;;;23.10;5.22;;;10.80;99.90;;;;;;5094142;28;20027;-79
2023/01/05 01:01:10;;;;;;;20.20;5.55;;;10.80;99.90;;;;;;5102708;27;20035;-79
2023/01/05 01:03:36;;;;;;;21.30;4.90;;;10.70;99.90;;;;;;5119096;27;20036;-80
2023/01/05 01:06:02;;;;;;;18.58;5.00;;;10.70;99.90;;;;;;5106646;27;20566;-79
2023/01/05 01:08:27;;;;;;;22.27;5.60;;;10.70;99.90;;;;;;5097256;27;20039;-80
2023/01/05 01:10:53;;;;;;;20.10;5.30;;;10.70;99.90;;;;;;5126937;27;20042;-79
2023/01/05 01:13:19;;;;;;;19.25;5.70;;;10.70;99.90;;;;;;5106728;27;20126;-81
2023/01/05 01:15:44;;;;;;;20.17;4.85;;;10.70;99.90;;;;;;5122250;27;20031;-80
2023/01/05 01:18:10;;;;;;;23.25;5.55;;;10.70;99.90;;;;;;5093895;28;20229;-79
2023/01/05 01:20:38;;;;;;;18.90;5.75;;;10.70;99.90;;;;;;5112020;28;20059;-78
2023/01/05 01:23:04;;;;;;;24.08;6.15;;;10.60;99.90;;;;;;5110748;27;20051;-78
2023/01/05 01:25:30;;;;;;;20.23;6.13;;;10.60;99.90;;;;;;5112699;27;20035;-77
2023/01/05 01:27:56;;;;;;;24.90;6.50;;;10.70;99.90;;;;;;5093132;28;20068;-77
2023/01/05 01:30:21;;;;;;;20.77;5.60;;;10.70;99.90;;;;;;5098878;27;20517;-79
2023/01/05 01:32:47;;;;;;;21.25;5.10;;;10.70;99.90;;;;;;5125417;27;20039;-79
2023/01/05 01:35:13;;;;;;;21.65;5.57;;;10.70;99.90;;;;;;5092054;28;20092;-78
2023/01/05 01:37:39;;;;;;;19.55;5.32;;;10.70;99.90;;;;;;5101826;27;20042;-80
2023/01/05 01:40:06;;;;;;;19.88;5.60;;;10.70;99.90;;;;;;5102242;28;20111;-79
2023/01/05 01:42:32;;;;;;;19.83;6.10;;;10.70;99.90;;;;;;5099099;28;20566;-80
2023/01/05 01:45:13;;;;;;;17.30;5.40;;;10.70;99.90;;;;;;5130369;27;20110;-78
2023/01/05 01:47:50;;;;;;;21.80;5.60;;;10.70;99.90;;;;;;5139061;27;20092;-78
2023/01/05 01:50:40;;;;;;;19.73;5.38;;;10.70;99.90;;;;;;5099135;28;20285;-79
2023/01/05 01:53:11;;;;;;;22.10;6.43;;;10.70;99.90;;;;;;5091716;28;20395;-77
2023/01/05 01:55:38;;;;;;;21.63;5.78;;;10.60;99.90;;;;;;5123855;27;20046;-79
2023/01/05 01:58:10;;;;;;;19.65;5.55;;;10.70;99.90;;;;;;5112516;27;20043;-78
2023/01/05 02:00:37;;;;;;;;;;;10.70;99.90;;;;;;5124381;27;20387;-77
2023/01/05 02:03:03;;;;;;;19.75;5.50;;;10.70;99.90;;;;;;5096794;28;19916;-79
2023/01/05 02:05:32;;;;;;;17.45;5.35;;;10.60;99.90;;;;;;5116317;27;20070;-78
2023/01/05 02:07:58;;;;;;;18.13;5.03;;;10.60;99.90;;;;;;5099655;28;20082;-78
2023/01/05 02:10:49;;;;;;;19.67;5.22;;;10.50;99.90;;;;;;5093621;28;20074;-79
2023/01/05 02:13:18;;;;;;;;;;;10.60;99.90;;;;;;5097310;27;20039;-78
2023/01/05 02:15:56;;;;;;;21.08;5.10;;;10.60;99.90;;;;;;5108236;27;19965;-79
2023/01/05 02:18:50;;;;;;;20.85;4.70;;;10.60;99.90;;;;;;5123657;27;20043;-78
2023/01/05 02:21:31;;;;;;;20.05;4.68;;;10.60;99.90;;;;;;5091731;27;20035;-77
2023/01/05 02:24:09;;;;;;;;;;;10.60;99.90;;;;;;5114322;27;20127;-78
2023/01/05 02:26:43;;;;;;;20.83;5.60;;;10.50;99.90;;;;;;5117287;27;19919;-78
2023/01/05 02:29:24;;;;;;;25.00;5.63;;;10.50;99.90;;;;;;5107078;27;20074;-77
2023/01/05 02:31:59;;;;;;;20.15;5.38;;;10.60;99.90;;;;;;5102527;28;20432;-79
2023/01/05 02:34:27;;;;;;;19.73;5.28;;;10.50;99.90;;;;;;5109517;27;20039;-79
2023/01/05 02:37:07;;;;;;;17.92;4.55;;;10.50;99.90;;;;;;5093598;27;20054;-79
2023/01/05 02:39:38;;;;;;;19.42;5.75;;;10.60;99.90;;;;;;5117897;27;20035;-78
2023/01/05 02:42:12;;;;;;;19.08;5.28;;;10.60;99.90;;;;;;5124708;27;20050;-78
2023/01/05 02:44:37;;;;;;;19.48;5.22;;;10.60;99.90;;;;;;5097625;27;20042;-77
2023/01/05 02:47:22;;;;;;;19.95;5.68;;;10.60;99.90;;;;;;5091960;27;20739;-79
2023/01/05 02:49:47;;;;;;;21.25;5.75;;;10.60;99.90;;;;;;5112456;27;20082;-78
2023/01/05 02:52:14;;;;;;;18.02;5.50;;;10.60;99.90;;;;;;5091059;28;20427;-79
2023/01/05 02:54:56;;;;;;;20.95;5.43;;;10.60;99.90;;;;;;5116382;27;20465;-78
2023/01/05 02:57:46;;;;;;;23.85;5.97;;;10.40;99.90;;;;;;5145875;27;20047;-78
2023/01/05 03:00:17;;;;;;;21.48;5.20;;;10.30;99.90;;;;;;5105870;27;20042;-78
2023/01/05 03:02:44;;;;;;;;;;;10.30;99.90;;;;;;5092670;28;20130;-78
2023/01/05 03:05:21;;;;;;;17.45;4.80;;;10.30;99.90;;;;;;5133832;27;19920;-78
2023/01/05 03:07:50;;;;;;;22.30;5.30;;;10.20;99.90;;;;;;5075046;28;20082;-78
2023/01/05 03:15:57;;;;;;;21.40;5.10;;;10.20;99.90;;;;;;5122151;27;20114;-78
2023/01/05 03:18:25;;;;;;;20.98;6.03;;;10.10;99.90;;;;;;5092092;28;20051;-78
2023/01/05 03:20:53;;;;;;;27.02;6.38;;;10.20;99.90;;;;;;5119780;27;20043;-78
2023/01/05 03:38:17;;;;;;;21.10;5.57;;;10.10;99.90;;;;;;5116818;27;20040;-78
2023/01/05 03:40:44;;;;;;;21.77;5.88;;;10.10;99.90;;;;;;5118291;27;20043;-78
2023/01/05 03:43:10;;;;;;;23.00;6.05;;;10.20;99.90;;;;;;5116110;27;20067;-79
2023/01/05 03:45:40;;;;;;;21.38;5.80;;;10.10;99.90;;;;;;5132722;27;20101;-78
2023/01/05 03:48:06;;;;;;;23.15;6.20;;;10.20;99.90;;;;;;5132336;27;20035;-78
2023/01/05 03:50:33;;;;;;;22.02;6.13;;;10.20;99.90;;;;;;5107330;28;20039;-78
2023/01/05 03:52:59;;;;;;;25.38;6.47;;;10.30;99.90;;;;;;5096196;27;20184;-79
2023/01/05 03:55:25;;;;;;;18.48;5.20;;;10.30;99.90;;;;;;5106520;28;20122;-77
2023/01/05 03:57:50;;;;;;;21.90;5.85;;;10.30;99.90;;;;;;5127985;27;20043;-79
2023/01/05 04:00:16;;;;;;;21.05;5.65;;;10.30;99.90;;;;;;5129093;27;20042;-81
2023/01/05 04:02:42;;;;;;;23.90;6.25;;;10.30;99.90;;;;;;5103287;27;20140;-80
2023/01/05 04:05:07;;;;;;;20.77;5.72;;;10.20;99.90;;;;;;5108888;27;20034;-79
2023/01/05 04:07:33;;;;;;;21.25;5.53;;;10.20;99.90;;;;;;5103815;28;20043;-80
2023/01/05 04:10:00;;;;;;;20.17;5.53;;;10.20;99.90;;;;;;5100478;27;20631;-79
2023/01/05 04:12:26;;;;;;;22.10;4.97;;;10.20;99.90;;;;;;5115953;27;20133;-78
2023/01/05 04:14:51;;;;;;;20.73;5.55;;;10.20;99.90;;;;;;5140956;27;20126;-77
2023/01/05 04:17:17;;;;;;;17.48;5.05;;;10.20;99.90;;;;;;5093875;28;20046;-76
2023/01/05 04:19:42;;;;;;;21.88;6.18;;;10.30;99.90;;;;;;5095319;27;20040;-77
2023/01/05 04:22:08;;;;;;;20.88;5.25;;;10.30;99.90;;;;;;5106151;27;20398;-77
2023/01/05 04:24:34;;;;;;;19.35;5.90;;;10.40;99.90;;;;;;5102561;27;20056;-78
2023/01/05 04:26:59;;;;;;;21.90;5.45;;;10.40;99.90;;;;;;5107542;27;20035;-77
2023/01/05 04:29:25;;;;;;;20.95;5.18;;;10.40;99.90;;;;;;5115502;27;20535;-78
2023/01/05 04:31:50;;;;;;;17.92;5.20;;;10.50;99.90;;;;;;5126529;27;20117;-77
2023/01/05 04:34:16;;;;;;;23.98;6.07;;;10.40;99.90;;;;;;5093585;27;20036;-76
2023/01/05 04:36:42;;;;;;;23.40;5.30;;;10.40;99.90;;;;;;5112725;28;20036;-77
2023/01/05 04:39:07;;;;;;;22.70;5.50;;;10.50;99.90;;;;;;5105904;27;20043;-77
2023/01/05 04:41:33;;;;;;;19.52;4.85;;;10.50;99.90;;;;;;5099034;28;20035;-79
2023/01/05 04:43:58;;;;;;;21.67;5.70;;;10.50;99.90;;;;;;5094408;28;20038;-77
2023/01/05 04:46:24;;;;;;;20.58;5.10;;;10.60;99.90;;;;;;5106154;27;20031;-77
2023/01/05 04:48:50;;;;;;;20.85;5.47;;;10.50;99.90;;;;;;5110378;27;20048;-77
2023/01/05 04:51:15;;;;;;;17.20;4.88;;;10.50;99.90;;;;;;5125033;27;20055;-78
2023/01/05 04:53:41;;;;;;;22.30;5.68;;;10.60;99.90;;;;;;5116017;27;20027;-77
2023/01/05 04:56:07;;;;;;;19.90;5.13;;;10.60;99.90;;;;;;5109962;27;20031;-78
2023/01/05 04:58:32;;;;;;;16.02;5.20;;;10.60;99.90;;;;;;5118006;27;20035;-76
2023/01/05 05:00:58;;;;;;;18.23;5.57;;;10.50;99.90;;;;;;5096284;27;20031;-78
2023/01/05 05:03:23;;;;;;;19.27;5.65;;;10.50;99.90;;;;;;5103591;27;20396;-77
2023/01/05 05:05:49;;;;;;;19.35;4.82;;;10.50;99.90;;;;;;5100506;27;20046;-77
2023/01/05 05:08:15;;;;;;;19.67;4.75;;;10.50;99.90;;;;;;5108219;27;20047;-79
2023/01/05 05:10:40;;;;;;;23.38;5.95;;;10.50;99.90;;;;;;5106580;27;20042;-79
2023/01/05 05:13:06;;;;;;;19.83;5.57;;;10.50;99.90;;;;;;5102744;28;20078;-78
2023/01/05 05:15:32;;;;;;;20.38;5.93;;;10.50;99.90;;;;;;5133497;27;20032;-77
2023/01/05 05:17:57;;;;;;;20.60;5.20;;;10.50;99.90;;;;;;5093803;28;20040;-79
2023/01/05 05:20:23;;;;;;;19.13;5.57;;;10.50;99.90;;;;;;5096448;27;20371;-80
2023/01/05 05:22:48;;;;;;;20.08;5.53;;;10.50;99.90;;;;;;5111254;27;20501;-78
2023/01/05 05:25:14;;;;;;;21.48;5.63;;;10.50;99.90;;;;;;5100225;27;20043;-77
2023/01/05 05:27:40;;;;;;;23.05;5.30;;;10.50;99.90;;;;;;5124078;27;20051;-77
2023/01/05 05:30:06;;;;;;;21.17;4.47;;;10.50;99.90;;;;;;5093426;27;20043;-78
2023/01/05 05:32:32;;;;;;;22.20;5.97;;;10.50;99.90;;;;;;5094941;27;20067;-78
2023/01/05 05:34:57;;;;;;;20.02;5.22;;;10.50;99.90;;;;;;5110142;27;20067;-78
2023/01/05 05:37:23;;;;;;;20.10;5.55;;;10.50;99.90;;;;;;5103102;27;20039;-78
2023/01/05 05:39:48;;;;;;;17.85;4.65;;;10.50;99.90;;;;;;5113334;27;20123;-78
2023/01/05 05:42:14;;;;;;;18.20;5.10;;;10.60;99.90;;;;;;5130768;27;20059;-77
2023/01/05 05:44:40;;;;;;;17.35;5.20;;;10.60;99.90;;;;;;5113372;27;20034;-79
2023/01/05 05:47:05;;;;;;;18.67;5.10;;;10.60;99.90;;;;;;5099862;27;20050;-77
2023/01/05 05:49:31;;;;;;;22.77;5.88;;;10.60;99.90;;;;;;5111213;27;20050;-77
2023/01/05 05:51:57;;;;;;;20.17;5.68;;;10.50;99.90;;;;;;5100426;27;20042;-79
2023/01/05 05:54:22;;;;;;;18.23;5.40;;;10.50;99.90;;;;;;5093913;27;20031;-79
2023/01/05 05:56:48;;;;;;;20.63;5.45;;;10.60;99.90;;;;;;5108969;27;20031;-78
2023/01/05 05:59:14;;;;;;;19.23;6.03;;;10.50;99.90;;;;;;5114127;27;20403;-78
2023/01/05 06:01:39;;;;;;;22.38;6.03;;;10.50;99.90;;;;;;5112770;27;20031;-77
2023/01/05 06:04:05;;;;;;;19.70;5.28;;;10.50;99.90;;;;;;5121885;27;20445;-79
2023/01/05 06:06:30;;;;;;;23.40;5.88;;;10.50;99.90;;;;;;5114480;27;20521;-79
2023/01/05 06:08:56;;;;;;;20.05;5.43;;;10.50;99.90;;;;;;5110354;27;20126;-78
2023/01/05 06:11:22;;;;;;;17.90;4.55;;;10.50;99.90;;;;;;5092828;27;20040;-78
2023/01/05 06:13:47;;;;;;;21.55;5.13;;;10.50;99.90;;;;;;5110665;27;20112;-78
2023/01/05 06:16:14;;;;;;;20.25;5.40;;;10.50;99.90;;;;;;5117118;27;20035;-77
2023/01/05 06:18:40;;;;;;;17.85;5.20;;;10.50;99.90;;;;;;5109334;27;20091;-78
2023/01/05 06:21:06;;;;;;;21.27;4.97;;;10.50;99.90;;;;;;5106648;27;20118;-78
2023/01/05 06:23:31;;;;;;;20.52;5.70;;;10.50;99.90;;;;;;5103107;27;20388;-78
2023/01/05 06:25:57;;;;;;;23.30;5.32;;;10.50;99.90;;;;;;5120816;27;20176;-78
2023/01/05 06:28:23;;;;;;;19.75;5.18;;;10.50;99.90;;;;;;5109885;27;20435;-77
2023/01/05 06:30:48;;;;;;;19.60;5.13;;;10.50;99.90;;;;;;5119801;27;20042;-78
2023/01/05 06:33:14;;;;;;;23.42;5.30;;;10.50;99.90;;;;;;5110905;27;20528;-78
2023/01/05 06:35:40;;;;;;;24.13;6.57;;;10.50;99.90;;;;;;5099486;27;20046;-79
2023/01/05 06:38:05;;;;;;;18.40;5.53;;;10.40;99.90;;;;;;5118540;27;20063;-79
2023/01/05 06:40:31;;;;;;;24.35;6.30;;;10.40;99.90;;;;;;5117401;27;20040;-80
2023/01/05 06:42:57;;;;;;;22.23;5.65;;;10.40;99.90;;;;;;5122115;27;20037;-80
2023/01/05 06:45:22;;;;;;;24.42;6.22;;;10.40;99.90;;;;;;5108142;27;20027;-80
2023/01/05 06:47:48;;;;;;;25.13;5.93;;;10.40;99.90;;;;;;5126985;27;20053;-79
2023/01/05 06:50:14;;;;;;;21.00;5.35;;;10.40;99.90;;;;;;5112188;27;20035;-80
2023/01/05 06:52:39;;;;;;;19.55;5.03;;;10.40;99.90;;;;;;5103850;27;20050;-78
2023/01/05 06:55:12;;;;;;;22.08;5.15;;;10.40;99.90;;;;;;5106785;27;20040;-79
2023/01/05 06:57:37;;;;;;;20.58;5.45;;;10.30;99.90;;;;;;5100780;27;20044;-78
2023/01/05 07:00:06;;;;;;;20.45;5.38;;;10.30;99.90;;;;;;5118283;27;20085;-77
2023/01/05 07:02:32;;;;;;;18.27;5.05;;;10.30;99.90;;;;;;5100119;27;20054;-79
2023/01/05 07:04:57;;;;;;;20.23;5.75;;;10.30;99.90;;;;;;5100786;27;20475;-77
2023/01/05 07:07:23;;;;;;;23.52;6.70;;;10.30;99.90;;;;;;5103886;27;20138;-78
2023/01/05 07:09:49;;;;;;;20.27;5.47;;;10.30;99.90;;;;;;5130587;27;20122;-77
2023/01/05 07:12:15;;;;;;;17.30;5.47;;;10.30;99.90;;;;;;5124561;27;20053;-78
2023/01/05 07:14:41;;;;;;;19.88;5.68;;;10.30;99.90;;;;;;5112574;27;20031;-78
2023/01/05 07:17:07;;;;;;;22.25;5.80;;;10.40;99.90;;;;;;5105702;27;20463;-78
2023/01/05 07:19:33;;;;;;;22.90;5.68;;;10.40;99.90;;;;;;5110713;27;20376;-79
2023/01/05 07:21:58;;;;;;;22.67;5.45;;;10.40;99.90;;;;;;5099800;28;20246;-78
2023/01/05 07:24:24;;;;;;;18.42;5.72;;;10.40;99.90;;;;;;5112022;28;20059;-79
2023/01/05 07:26:50;;;;;;;21.98;5.35;;;10.40;99.90;;;;;;5122920;28;20096;-79
2023/01/05 07:29:16;;;;;;;20.80;4.90;;;10.40;99.90;;;;;;5098093;28;20050;-79
2023/01/05 07:31:41;;;;;;;20.92;5.50;;;10.30;99.90;;;;;;5108707;28;20095;-78
2023/01/05 07:34:08;;;;;;;23.50;5.38;;;10.30;99.90;;;;;;5101405;28;20039;-77
2023/01/05 07:36:34;;;;;;;22.80;5.82;;;10.30;99.90;;;;;;5098269;28;20055;-79
2023/01/05 07:38:59;;;;;;;17.45;5.38;;;10.20;99.90;;;;;;5111702;28;20058;-78
2023/01/05 07:41:25;;;;;;;18.58;5.20;;;10.20;99.90;;;;;;5110894;28;20411;-79
2023/01/05 07:43:51;;;;;;;23.20;6.05;;;10.20;99.90;;;;;;5111387;28;20411;-77
2023/01/05 07:46:16;;;;;;;23.10;5.68;;;10.20;99.90;;;;;;5106635;28;20031;-79
2023/01/05 07:48:42;;;;;;;20.23;5.22;;;10.20;99.90;;;;;;5130348;28;20054;-78
2023/01/05 07:51:09;;;;;;;24.85;6.15;;;10.20;99.90;;;;;;5098646;28;20043;-78
2023/01/05 07:53:37;;;;;;;20.98;5.95;;;10.20;99.90;;;;;;5109313;28;20047;-79
2023/01/05 07:56:03;;;;;;;22.83;6.47;;;10.10;99.90;;;;;;5124281;28;20114;-80
2023/01/05 07:58:29;;;;;;;20.10;5.45;;;10.10;99.90;;;;;;5084174;28;20054;-78
2023/01/05 08:00:55;;;;;;;20.85;5.82;;;10.10;99.90;;;;;;5088604;28;20036;-81
2023/01/05 08:03:21;;;;;;;19.73;6.10;;;10.10;99.90;;;;;;5120746;27;20063;-80
2023/01/05 08:05:47;;;;;;;22.45;6.10;;;10.10;99.90;;;;;;5093410;27;20047;-80
2023/01/05 08:08:14;;;;;;;26.67;6.45;;;10.00;99.90;;;;;;5135308;27;20032;-78
2023/01/05 08:10:41;;;;;;;23.40;6.32;;;10.00;99.90;;;;;;5130111;27;21770;-78
2023/01/05 08:15:55;;;;;;;21.20;5.57;;;10.10;99.90;;;;;;5123233;28;20043;-78
2023/01/05 08:18:22;;;;;;;19.30;5.28;;;10.00;99.90;;;;;;5105596;28;20083;-78
2023/01/05 08:21:07;;;;;;;19.67;5.60;;;10.10;99.90;;;;;;5108861;27;20035;-78
2023/01/05 08:23:33;;;;;;;20.95;5.65;;;10.10;99.90;;;;;;5103579;28;20051;-78
2023/01/05 08:26:04;;;;;;;19.98;5.72;;;10.10;99.90;;;;;;5128124;27;20108;-78
2023/01/05 08:28:30;;;;;;;;;;;10.10;99.90;;;;;;5134233;27;20561;-79
2023/01/05 08:31:00;;;;;;;23.08;5.60;;;10.10;99.90;;;;;;5114219;27;20021;-78
2023/01/05 08:33:26;;;;;;;22.73;6.40;;;10.10;99.90;;;;;;5130335;27;20379;-79
2023/01/05 08:35:52;;;;;;;20.25;5.72;;;10.10;99.90;;;;;;5130425;27;20042;-79
2023/01/05 08:38:23;;;;;;;23.95;6.63;;;10.10;99.90;;;;;;5125979;27;20039;-78
2023/01/05 08:40:49;;;;;;;21.73;5.20;;;10.10;99.90;;;;;;5147821;27;20077;-79
2023/01/05 08:43:14;;;;;;;20.38;5.40;;;10.10;99.90;;;;;;5087953;27;20067;-79
2023/01/05 08:45:41;;;;;;;21.38;5.60;;;10.20;99.90;;;;;;5115076;27;20035;-77
2023/01/05 08:48:08;;;;;;;22.75;5.78;;;10.20;99.90;;;;;;5131887;27;20404;-78
2023/01/05 08:50:35;;;;;;;22.77;5.88;;;10.20;99.90;;;;;;5122514;27;20039;-79
2023/01/05 08:53:00;;;;;;;16.58;4.82;;;10.20;99.90;;;;;;5111626;27;20035;-80
2023/01/05 08:55:26;;;;;;;20.27;5.72;;;10.20;99.90;;;;;;5120808;27;20034;-79
2023/01/05 08:57:52;;;;;;;21.17;5.78;;;10.20;99.90;;;;;;5130732;27;20059;-79
2023/01/05 09:00:20;;;;;;;22.05;5.78;;;10.20;99.90;;;;;;5141877;27;20403;-80
2023/01/05 09:02:46;;;;;;;19.40;5.57;;;10.20;99.90;;;;;;5114819;27;20042;-80
2023/01/05 09:05:12;;;;;;;22.73;5.72;;;10.20;99.90;;;;;;5116329;27;20035;-79
2023/01/05 09:07:38;;;;;;;20.90;6.60;;;10.20;99.90;;;;;;5134741;27;20042;-79
2023/01/05 09:10:07;;;;;;;24.25;6.32;;;10.30;99.90;;;;;;5108175;27;20042;-78
2023/01/05 09:12:37;;;;;;;19.42;6.20;;;10.30;99.90;;;;;;5112276;27;20089;-79
2023/01/05 09:15:05;;;;;;;25.17;6.18;;;10.30;99.90;;;;;;5112495;27;20339;-79
2023/01/05 09:17:32;;;;;;;18.58;5.95;;;10.30;99.90;;;;;;5114196;27;20122;-80
2023/01/05 09:19:57;;;;;;;22.83;7.45;;;10.30;99.90;;;;;;5143185;27;20067;-79
2023/01/05 09:22:23;;;;;;;24.08;5.40;;;10.30;99.90;;;;;;5122241;27;20097;-80
2023/01/05 09:24:49;;;;;;;22.02;6.28;;;10.30;99.90;;;;;;5112919;27;20055;-79
2023/01/05 09:27:15;;;;;;;23.13;5.95;;;10.30;99.90;;;;;;5125743;27;20084;-80
2023/01/05 09:29:40;;;;;;;23.02;6.32;;;10.30;99.90;;;;;;5130250;27;20732;-81
2023/01/05 09:32:06;;;;;;;22.35;6.05;;;10.30;99.90;;;;;;5110388;27;20031;-81
2023/01/05 09:34:32;;;;;;;24.42;6.38;;;10.30;99.90;;;;;;5101427;28;20054;-81
2023/01/05 09:36:58;;;;;;;24.33;6.47;;;10.40;99.90;;;;;;5109246;27;20039;-81
2023/01/05 09:39:24;;;;;;;20.17;5.32;;;10.40;99.90;;;;;;5114581;27;20055;-81
2023/01/05 09:41:53;;;;;;;20.90;5.47;;;10.40;99.90;;;;;;5115072;27;20043;-81
2023/01/05 09:44:29;;;;;;;23.45;5.72;;;10.40;99.90;;;;;;5088621;27;20059;-81
2023/01/05 09:47:12;;;;;;;17.63;5.22;;;10.40;99.90;;;;;;5129320;27;20143;-81
2023/01/05 09:49:39;;;;;;;21.70;5.78;;;10.50;99.90;;;;;;5092349;27;20049;-81
2023/01/05 09:52:08;;;;;;;16.45;5.75;;;10.50;99.90;;;;;;5131041;27;20569;-82
2023/01/05 09:54:35;;;;;;;21.40;5.38;;;10.50;99.90;;;;;;5113250;27;20081;-82
2023/01/05 09:57:02;;;;;;;20.42;5.75;;;10.50;99.90;;;;;;5113223;27;20044;-80
2023/01/05 09:59:32;;;;;;;20.13;5.28;;;10.50;99.90;;;;;;5130780;27;20078;-80
2023/01/05 10:02:02;;;;;;;21.70;6.13;;;10.50;99.90;;;;;;5125808;27;20036;-81
2023/01/05 10:04:31;;;;;;;23.35;6.00;;;10.50;99.90;;;;;;5137052;27;20492;-80
2023/01/05 10:07:02;;;;;;;21.45;5.72;;;10.50;99.90;;;;;;5130347;27;20158;-80
2023/01/05 10:09:32;;;;;;;19.75;5.97;;;10.50;99.90;;;;;;5096057;28;20118;-82
2023/01/05 10:15:12;;;;;;;20.48;5.43;;;10.50;99.90;;;;;;5125001;27;20051;-82
2023/01/05 10:17:38;;;;;;;19.95;5.13;;;10.50;99.90;;;;;;5125598;27;20031;-82
2023/01/05 10:20:23;;;;;;;18.77;4.85;;;10.50;99.90;;;;;;5109982;27;20114;-82
2023/01/05 10:23:13;;;;;;;17.83;5.15;;;10.50;99.90;;;;;;5112476;27;20051;-82
2023/01/05 10:25:49;;;;;;;20.05;5.13;;;10.50;99.90;;;;;;5111144;27;20123;-82
2023/01/05 10:28:47;;;;;;;20.48;5.75;;;10.50;99.90;;;;;;5112080;27;20043;-81
2023/01/05 10:31:38;;;;;;;16.77;4.72;;;10.50;99.90;;;;;;5093136;27;20047;-83
2023/01/05 10:34:20;;;;;;;22.30;5.90;;;10.50;99.90;;;;;;5128606;27;20051;-85
2023/01/05 10:36:53;;;;;;;;;;;10.60;99.90;;;;;;5119284;27;20035;-82
2023/01/05 10:39:44;;;;;;;16.63;4.43;;;10.50;99.90;;;;;;5132751;27;19962;-82
2023/01/05 10:42:24;;;;;;;20.77;5.50;;;10.50;99.90;;;;;;5103805;27;20039;-83
2023/01/05 10:44:52;;;;;;;18.65;5.32;;;10.50;99.90;;;;;;5122674;27;20046;-81
2023/01/05 10:47:19;;;;;;;19.95;5.30;;;10.50;99.90;;;;;;5121514;27;20118;-80
2023/01/05 10:49:46;;;;;;;20.85;4.72;;;10.50;99.90;;;;;;5110570;27;20119;-81
2023/01/05 10:52:15;;;;;;;17.52;4.35;;;10.50;99.90;;;;;;5097449;27;20492;-80
2023/01/05 10:54:52;;;;;;;21.05;4.72;;;10.50;99.90;;;;;;5107671;28;20099;-81
2023/01/05 10:57:27;;;;;;;16.02;4.45;;;10.50;99.90;;;;;;5120873;27;20062;-80
2023/01/05 10:59:55;;;;;;;15.40;4.28;;;10.50;99.90;;;;;;5112216;27;20039;-80
2023/01/05 11:02:23;;;;;;;14.68;4.13;;;10.60;99.90;;;;;;5096006;27;20047;-80
2023/01/05 11:04:50;;;;;;;15.48;4.30;;;10.60;99.90;;;;;;5122398;27;20050;-79
2023/01/05 11:07:16;;;;;;;15.32;4.07;;;10.60;99.90;;;;;;5107860;27;20043;-81
2023/01/05 11:09:43;;;;;;;13.15;3.67;;;10.60;99.90;;;;;;5103053;27;20361;-83
2023/01/05 11:12:22;;;;;;;15.10;3.55;;;10.70;99.90;;;;;;5133633;27;20460;-81
2023/01/05 11:14:57;;;;;;;13.13;3.85;;;10.70;99.90;;;;;;5100588;28;20511;-79
2023/01/05 11:17:26;;;;;;;14.90;3.95;;;10.70;99.90;;;;;;5097225;27;20035;-80
2023/01/05 11:19:54;;;;;;;15.95;3.78;;;10.70;99.90;;;;;;5101372;27;20163;-80
2023/01/05 11:22:38;;;;;;;16.65;4.53;;;10.70;99.90;;;;;;5097954;27;20391;-79
2023/01/05 11:25:23;;;;;;;14.77;4.40;;;10.70;99.90;;;;;;5074709;28;20044;-79
2023/01/05 11:28:09;;;;;;;15.82;4.43;;;10.70;99.90;;;;;;5077439;28;20043;-77
2023/01/05 11:30:44;;;;;;;17.88;4.10;;;10.70;99.90;;;;;;5088361;28;20492;-78
2023/01/05 11:33:22;;;;;;;16.83;3.95;;;10.70;99.90;;;;;;5087150;28;20085;-79
2023/01/05 11:35:49;;;;;;;20.17;5.47;;;10.70;99.90;;;;;;5085156;28;20040;-79
2023/01/05 11:38:24;;;;;;;21.42;5.55;;;10.80;99.90;;;;;;5076440;28;20036;-80
2023/01/05 11:40:50;;;;;;;17.67;4.75;;;10.80;99.90;;;;;;5081048;28;20565;-78
2023/01/05 11:43:18;;;;;;;18.10;4.80;;;10.80;99.90;;;;;;5081951;28;20455;-79
2023/01/05 11:45:54;;;;;;;16.05;4.47;;;10.90;99.90;;;;;;5083887;28;20040;-79
2023/01/05 11:48:26;;;;;;;18.88;4.70;;;10.90;99.90;;;;;;5085917;28;20121;-79
2023/01/05 11:50:55;;;;;;;14.23;4.25;;;11.00;99.90;;;;;;5090441;28;20114;-80
2023/01/05 11:53:25;;;;;;;17.88;5.05;;;11.00;99.90;;;;;;5081151;28;20040;-78
2023/01/05 11:56:04;;;;;;;16.45;4.80;;;11.00;99.90;;;;;;5076848;28;20465;-80
2023/01/05 11:58:45;;;;;;;15.98;5.88;;;11.00;99.90;;;;;;5081148;28;20032;-83
2023/01/05 12:01:38;;;;;;;16.52;5.47;;;10.90;99.90;;;;;;5086965;28;20063;-84
2023/01/05 12:04:09;;;;;;;21.80;9.93;;;10.90;99.90;;;;;;5088425;28;20399;-82
2023/01/05 12:06:41;;;;;;;17.08;4.45;;;10.90;99.90;;;;;;5070980;28;20047;-80
2023/01/05 12:09:19;;;;;;;17.58;4.50;;;10.90;99.90;;;;;;5071636;28;20063;-81
2023/01/05 12:11:57;;;;;;;17.58;5.03;;;11.00;99.90;;;;;;5073441;28;20036;-82
2023/01/05 12:14:37;;;;;;;16.80;4.70;;;10.90;99.90;;;;;;5092585;28;20040;-81
2023/01/05 12:17:28;;;;;;;18.42;4.60;;;10.90;99.90;;;;;;5092052;28;20114;-82
2023/01/05 12:20:18;;;;;;;19.98;4.40;;;10.90;99.90;;;;;;5086718;28;20043;-81
2023/01/05 12:22:55;;;;;;;14.95;4.60;;;10.90;99.90;;;;;;5097059;27;20044;-80
2023/01/05 12:25:30;;;;;;;17.77;4.72;;;10.90;99.90;;;;;;5114445;27;20054;-80
2023/01/05 12:28:15;;;;;;;19.52;4.97;;;10.80;99.90;;;;;;5140407;27;20133;-82
2023/01/05 12:30:49;;;;;;;16.83;4.80;;;10.80;99.90;;;;;;5113656;27;20069;-82
2023/01/05 12:33:35;;;;;;;17.40;5.68;;;10.80;99.90;;;;;;5109213;27;20045;-81
2023/01/05 12:36:09;;;;;;;16.42;4.55;;;10.80;99.90;;;;;;5101040;27;20115;-81
2023/01/05 12:38:54;;;;;;;15.45;4.30;;;10.70;99.90;;;;;;5105893;27;20035;-79
2023/01/05 12:41:52;;;;;;;15.52;4.50;;;10.70;99.90;;;;;;5122095;27;20411;-83
2023/01/05 12:44:51;;;;;;;18.88;4.85;;;10.70;99.90;;;;;;5116088;27;20067;-82
2023/01/05 12:47:43;;;;;;;15.90;5.07;;;10.70;99.90;;;;;;5132145;27;20076;-83
2023/01/05 12:50:24;;;;;;;16.73;5.40;;;10.60;99.90;;;;;;5113475;27;20042;-82
2023/01/05 12:53:20;;;;;;;18.08;4.80;;;10.60;99.90;;;;;;5121222;27;20043;-82
2023/01/05 12:55:55;;;;;;;18.75;4.85;;;10.50;99.90;;;;;;5125380;27;20522;-83
2023/01/05 12:58:41;;;;;;;18.13;4.93;;;10.50;99.90;;;;;;5113962;27;20080;-82
2023/01/05 13:01:20;;;;;;;20.75;5.20;;;10.50;99.90;;;;;;5111830;27;20031;-83
2023/01/05 13:03:58;;;;;;;16.10;4.68;;;10.50;99.90;;;;;;5126981;27;20360;-84
2023/01/05 13:06:25;;;;;;;21.38;4.88;;;10.50;99.90;;;;;;5130127;27;20327;-82
2023/01/05 13:09:07;;;;;;;21.45;5.43;;;10.50;99.90;;;;;;5113085;27;20058;-83
2023/01/05 13:11:43;;;;;;;23.52;5.38;;;10.50;99.90;;;;;;5100977;27;20047;-82
2023/01/05 13:14:18;;;;;;;23.67;6.22;;;10.60;99.90;;;;;;5114888;27;20039;-82
2023/01/05 13:17:06;;;;;;;25.25;6.07;;;10.60;99.90;;;;;;5133443;27;20387;-82
2023/01/05 13:19:40;;;;;;;22.60;5.80;;;10.70;99.90;;;;;;5093281;27;20118;-83
2023/01/05 13:22:18;;;;;;;19.48;5.75;;;10.70;99.90;;;;;;5110290;27;20039;-82
2023/01/05 13:24:56;;;;;;;19.98;5.70;;;10.70;99.90;;;;;;5122148;27;20082;-82
2023/01/05 13:27:22;;;;;;;23.42;6.43;;;10.70;99.90;;;;;;5107349;27;20046;-81
2023/01/05 13:29:49;;;;;;;24.65;6.30;;;10.70;99.90;;;;;;5113557;27;20487;-81
2023/01/05 13:32:36;;;;;;;22.25;5.63;;;10.70;99.90;;;;;;5095166;27;20035;-81